Time;durP1;ratioP1;P1;durP2;ratioP2;P2;SDS_P1;SDS_P2;PMS_P1;PMS_P2;Temp;Humidity;BMP_temperature;BMP_pressure;BME280_temperature;BME280_humidity;BME280_pressure;Samples;Min_cycle;Max_cycle;Signal;HPM_P1;HPM_P2
2021/08/01 00:00:06;;;;;;;;;;;21.80;71.80;;;;;;5071990;28;1285;-72
2021/08/01 00:02:32;;;;;;;;;;;21.80;71.70;;;;;;5070146;28;1055;-73
2021/08/01 00:04:57;;;;;;;;;;;21.80;71.80;;;;;;5070243;28;1083;-73
2021/08/01 00:07:23;;;;;;;;;;;21.80;71.80;;;;;;5072120;28;1126;-73
2021/08/01 00:09:48;;;;;;;;;;;21.80;71.80;;;;;;5071581;28;1353;-72
2021/08/01 00:12:15;;;;;;;;;;;21.80;71.80;;;;;;5071597;28;1965;-73
2021/08/01 00:14:41;;;;;;;;;;;21.80;71.90;;;;;;5071304;28;1063;-73
2021/08/01 00:17:06;;;;;;;;;;;21.80;71.90;;;;;;5071798;28;1122;-73
2021/08/01 00:19:32;;;;;;;;;;;21.80;71.80;;;;;;5061035;28;1819;-73
2021/08/01 00:21:57;;;;;;;;;;;21.80;71.80;;;;;;5056874;28;1273;-73
2021/08/01 00:24:22;;;;;;;;;;;21.80;71.80;;;;;;5059772;28;1242;-73
2021/08/01 00:26:48;;;;;;;;;;;21.80;71.80;;;;;;5058901;28;1121;-73
2021/08/01 00:29:13;;;;;;;;;;;21.80;71.80;;;;;;5066754;28;1256;-73
2021/08/01 00:31:39;;;;;;;;;;;21.80;71.80;;;;;;5060741;28;1993;-73
2021/08/01 00:34:04;;;;;;;;;;;21.80;71.80;;;;;;5071107;28;1202;-73
2021/08/01 00:36:30;;;;;;;;;;;21.80;71.80;;;;;;5071437;28;1051;-73
2021/08/01 00:38:55;;;;;;;;;;;21.80;71.80;;;;;;5071611;28;1354;-73
2021/08/01 00:41:20;;;;;;;;;;;21.80;71.90;;;;;;5074620;28;1168;-73
2021/08/01 00:43:46;;;;;;;;;;;21.80;71.90;;;;;;5074382;28;1043;-73
2021/08/01 00:46:11;;;;;;;;;;;21.80;71.80;;;;;;5061834;28;1079;-73
2021/08/01 00:48:37;;;;;;;;;;;21.80;71.80;;;;;;5057272;28;1365;-73
2021/08/01 00:51:03;;;;;;;;;;;21.80;71.80;;;;;;5073626;28;1308;-73
2021/08/01 00:53:28;;;;;;;;;;;21.80;71.70;;;;;;5062122;28;1959;-73
2021/08/01 00:55:53;;;;;;;;;;;21.80;71.70;;;;;;5073133;28;1395;-73
2021/08/01 00:58:19;;;;;;;;;;;21.80;71.70;;;;;;5074778;28;1361;-74
2021/08/01 01:03:17;;;;;;;;;;;21.80;71.70;;;;;;5074096;28;1115;-73
2021/08/01 01:05:45;;;;;;;;;;;21.80;71.70;;;;;;5074400;28;1086;-73
2021/08/01 01:08:10;;;;;;;;;;;21.80;71.80;;;;;;5073424;28;1090;-72
2021/08/01 01:10:37;;;;;;;;;;;21.80;71.80;;;;;;5074469;28;1337;-73
2021/08/01 01:13:04;;;;;;;;;;;21.80;71.70;;;;;;5056642;28;1902;-73
2021/08/01 01:15:30;;;;;;;;;;;21.80;71.70;;;;;;5055806;28;1193;-73
2021/08/01 01:17:56;;;;;;;;;;;21.80;71.70;;;;;;5073238;28;1423;-73
2021/08/01 01:20:39;;;;;;;;;;;21.80;71.80;;;;;;5073166;28;1311;-73
2021/08/01 01:23:15;;;;;;;;;;;21.80;71.70;;;;;;5057014;28;1171;-73
2021/08/01 01:25:46;;;;;;;;;;;21.80;71.70;;;;;;5073229;28;1083;-73
2021/08/01 01:28:14;;;;;;;;;;;21.80;71.70;;;;;;5072987;28;1170;-72
2021/08/01 01:30:42;;;;;;;;;;;21.80;71.70;;;;;;5072656;28;1290;-73
2021/08/01 01:33:08;;;;;;;;;;;21.80;71.70;;;;;;5072877;28;1902;-72
2021/08/01 01:35:36;;;;;;;;;;;21.80;71.70;;;;;;5072355;28;1121;-73
2021/08/01 01:38:01;;;;;;;;;;;21.80;71.60;;;;;;5073023;28;1134;-73
2021/08/01 01:40:26;;;;;;;;;;;21.80;71.70;;;;;;5072609;28;1281;-73
2021/08/01 01:42:52;;;;;;;;;;;21.80;71.60;;;;;;5072622;28;1138;-74
2021/08/01 01:45:18;;;;;;;;;;;21.80;71.60;;;;;;5059589;28;1279;-73
2021/08/01 01:47:45;;;;;;;;;;;21.80;71.60;;;;;;5073699;28;1127;-73
2021/08/01 01:50:10;;;;;;;;;;;21.80;71.60;;;;;;5072967;28;1187;-72
2021/08/01 01:52:35;;;;;;;;;;;21.80;71.60;;;;;;5064826;28;1949;-73
2021/08/01 01:55:02;;;;;;;;;;;21.80;71.60;;;;;;5065037;28;1134;-73
2021/08/01 01:57:27;;;;;;;;;;;21.80;71.60;;;;;;5072552;28;1252;-73
2021/08/01 01:59:53;;;;;;;;;;;21.80;71.60;;;;;;5072802;28;1299;-73
2021/08/01 02:02:18;;;;;;;;;;;21.80;71.60;;;;;;5066928;28;1017;-72
2021/08/01 02:04:43;;;;;;;;;;;21.80;71.50;;;;;;5066113;28;1059;-72
2021/08/01 02:07:10;;;;;;;;;;;21.80;71.50;;;;;;5072419;28;1078;-73
2021/08/01 02:09:47;;;;;;;;;;;21.80;71.50;;;;;;5073593;28;1273;-73
2021/08/01 02:12:20;;;;;;;;;;;21.80;71.50;;;;;;5073347;28;1899;-72
2021/08/01 02:14:45;;;;;;;;;;;21.80;72.30;;;;;;5072831;28;1094;-73
2021/08/01 02:17:11;;;;;;;;;;;21.80;71.50;;;;;;5073379;28;1079;-73
2021/08/01 02:19:37;;;;;;;;;;;21.80;72.20;;;;;;5071934;28;1378;-72
2021/08/01 02:22:03;;;;;;;;;;;21.80;71.50;;;;;;5071796;28;1087;-72
2021/08/01 02:24:28;;;;;;;;;;;21.80;71.50;;;;;;5071579;28;1146;-73
2021/08/01 02:26:54;;;;;;;;;;;21.80;71.50;;;;;;5073576;28;1087;-74
2021/08/01 02:29:19;;;;;;;;;;;21.80;71.50;;;;;;5071897;28;1353;-73
2021/08/01 02:31:44;;;;;;;;;;;21.80;71.50;;;;;;5071969;28;1960;-73
2021/08/01 02:34:10;;;;;;;;;;;21.80;71.50;;;;;;5072178;28;1134;-73
2021/08/01 02:36:35;;;;;;;;;;;21.80;72.20;;;;;;5071568;28;1059;-72
2021/08/01 02:39:02;;;;;;;;;;;21.70;71.40;;;;;;5054971;28;1328;-73
2021/08/01 02:41:31;;;;;;;;;;;21.80;71.40;;;;;;5071657;28;1114;-73
2021/08/01 02:43:57;;;;;;;;;;;21.80;71.40;;;;;;5069305;28;1138;-73
2021/08/01 02:46:23;;;;;;;;;;;21.80;71.40;;;;;;5061527;28;1076;-73
2021/08/01 02:48:49;;;;;;;;;;;21.80;72.20;;;;;;5071528;28;1294;-73
2021/08/01 02:51:14;;;;;;;;;;;21.70;71.40;;;;;;5071569;28;1110;-73
2021/08/01 02:53:42;;;;;;;;;;;21.70;71.40;;;;;;5058142;28;1906;-73
2021/08/01 02:56:07;;;;;;;;;;;21.80;71.40;;;;;;5054037;28;1764;-73
2021/08/01 02:58:33;;;;;;;;;;;21.70;71.30;;;;;;5088037;28;1404;-73
2021/08/01 03:00:58;;;;;;;;;;;21.70;71.30;;;;;;5054553;28;1095;-73
2021/08/01 03:03:24;;;;;;;;;;;21.70;71.30;;;;;;5071013;28;1050;-73
2021/08/01 03:05:49;;;;;;;;;;;21.70;71.30;;;;;;5070581;28;1062;-72
2021/08/01 03:08:15;;;;;;;;;;;21.70;71.30;;;;;;5071161;28;1125;-73
2021/08/01 03:10:44;;;;;;;;;;;21.70;71.30;;;;;;5071652;28;1223;-73
2021/08/01 03:13:10;;;;;;;;;;;21.70;71.20;;;;;;5072076;28;1905;-73
2021/08/01 03:15:35;;;;;;;;;;;21.70;71.30;;;;;;5072081;28;1118;-73
2021/08/01 03:18:01;;;;;;;;;;;21.70;71.30;;;;;;5072351;28;1063;-72
2021/08/01 03:20:26;;;;;;;;;;;21.70;71.20;;;;;;5071883;28;1208;-73
2021/08/01 03:22:51;;;;;;;;;;;21.70;71.30;;;;;;5072753;28;1070;-72
2021/08/01 03:25:17;;;;;;;;;;;21.70;71.30;;;;;;5071549;28;1110;-72
2021/08/01 03:27:42;;;;;;;;;;;21.70;71.30;;;;;;5072290;28;1046;-73
2021/08/01 03:30:08;;;;;;;;;;;21.70;71.30;;;;;;5072417;28;1241;-72
2021/08/01 03:32:33;;;;;;;;;;;21.70;71.20;;;;;;5072043;28;1898;-73
2021/08/01 03:34:59;;;;;;;;;;;21.70;71.20;;;;;;5071179;28;1102;-73
2021/08/01 03:37:27;;;;;;;;;;;21.70;71.20;;;;;;5072337;28;1146;-72
2021/08/01 03:39:53;;;;;;;;;;;21.70;71.20;;;;;;5072232;28;1215;-73
2021/08/01 03:42:18;;;;;;;;;;;21.70;71.20;;;;;;5070697;28;1179;-73
2021/08/01 03:44:44;;;;;;;;;;;21.70;71.20;;;;;;5062005;28;1200;-72
2021/08/01 03:47:09;;;;;;;;;;;21.70;71.20;;;;;;5066923;28;988;-73
2021/08/01 03:49:35;;;;;;;;;;;21.70;71.20;;;;;;5071978;28;1325;-73
2021/08/01 03:52:00;;;;;;;;;;;21.70;71.20;;;;;;5070219;28;1906;-73
2021/08/01 03:54:26;;;;;;;;;;;21.70;71.20;;;;;;5059580;28;1059;-73
2021/08/01 03:56:51;;;;;;;;;;;21.70;71.20;;;;;;5054142;28;1075;-73
2021/08/01 03:59:17;;;;;;;;;;;21.70;71.10;;;;;;5071980;28;1286;-73
2021/08/01 04:01:42;;;;;;;;;;;21.70;71.90;;;;;;5053854;28;1142;-73
2021/08/01 04:04:07;;;;;;;;;;;21.80;71.30;;;;;;5071269;28;1138;-73
2021/08/01 04:06:33;;;;;;;;;;;21.70;71.20;;;;;;5070598;28;1165;-73
2021/08/01 04:08:58;;;;;;;;;;;21.70;71.20;;;;;;5071946;28;1270;-73
2021/08/01 04:11:24;;;;;;;;;;;21.70;71.20;;;;;;5071702;28;1118;-72
2021/08/01 04:13:49;;;;;;;;;;;21.70;71.20;;;;;;5070462;28;1961;-73
2021/08/01 04:16:15;;;;;;;;;;;21.70;71.20;;;;;;5073917;28;1122;-72
2021/08/01 04:18:40;;;;;;;;;;;21.70;71.20;;;;;;5075622;28;1387;-73
2021/08/01 04:21:06;;;;;;;;;;;21.70;71.20;;;;;;5075552;28;1121;-73
2021/08/01 04:23:32;;;;;;;;;;;21.70;71.20;;;;;;5074293;28;1105;-72
2021/08/01 04:25:57;;;;;;;;;;;21.70;71.20;;;;;;5074763;28;1114;-72
2021/08/01 04:28:22;;;;;;;;;;;21.70;71.10;;;;;;5075505;28;1349;-72
2021/08/01 04:30:48;;;;;;;;;;;21.70;71.10;;;;;;5075726;28;1106;-73
2021/08/01 04:33:13;;;;;;;;;;;21.70;71.10;;;;;;5074329;28;1959;-73
2021/08/01 04:35:39;;;;;;;;;;;21.70;71.10;;;;;;5074525;28;1162;-72
2021/08/01 04:38:04;;;;;;;;;;;21.70;71.10;;;;;;5075685;28;1067;-73
2021/08/01 04:40:29;;;;;;;;;;;21.70;71.10;;;;;;5074235;28;1278;-72
2021/08/01 04:42:55;;;;;;;;;;;21.70;71.10;;;;;;5074850;28;1394;-73
2021/08/01 04:45:20;;;;;;;;;;;21.70;71.10;;;;;;5061539;28;1137;-73
2021/08/01 04:47:46;;;;;;;;;;;21.70;71.10;;;;;;5074943;28;1058;-73
2021/08/01 04:50:11;;;;;;;;;;;21.70;71.10;;;;;;5074007;28;1304;-73
2021/08/01 04:52:37;;;;;;;;;;;21.70;71.20;;;;;;5068368;28;1972;-73
2021/08/01 04:55:02;;;;;;;;;;;21.70;71.10;;;;;;5067439;28;1115;-72
2021/08/01 04:57:27;;;;;;;;;;;21.70;71.20;;;;;;5074565;28;1073;-73
2021/08/01 04:59:53;;;;;;;;;;;21.70;71.10;;;;;;5075092;28;1203;-72
2021/08/01 05:02:20;;;;;;;;;;;21.70;71.20;;;;;;5074969;28;1118;-72
2021/08/01 05:04:46;;;;;;;;;;;21.70;71.10;;;;;;5073330;28;1146;-72
2021/08/01 05:07:11;;;;;;;;;;;21.70;71.20;;;;;;5073370;28;1130;-73
2021/08/01 05:09:37;;;;;;;;;;;21.70;71.20;;;;;;5075440;28;1685;-72
2021/08/01 05:12:02;;;;;;;;;;;21.70;71.10;;;;;;5067443;28;1898;-72
2021/08/01 05:14:28;;;;;;;;;;;21.70;71.10;;;;;;5064897;28;1099;-72
2021/08/01 05:16:54;;;;;;;;;;;21.70;71.10;;;;;;5073457;28;1161;-72
2021/08/01 05:19:19;;;;;;;;;;;21.70;71.10;;;;;;5075298;28;1397;-72
2021/08/01 05:21:45;;;;;;;;;;;21.70;71.10;;;;;;5074228;28;1098;-72
2021/08/01 05:24:10;;;;;;;;;;;21.70;71.10;;;;;;5074017;28;1066;-71
2021/08/01 05:26:35;;;;;;;;;;;21.70;71.20;;;;;;5074518;28;1176;-72
2021/08/01 05:29:01;;;;;;;;;;;21.70;71.20;;;;;;5074577;28;1282;-72
2021/08/01 05:31:26;;;;;;;;;;;21.70;71.20;;;;;;5074196;28;1130;-71
2021/08/01 05:33:52;;;;;;;;;;;21.70;70.80;;;;;;5074153;28;1902;-72
2021/08/01 05:36:17;;;;;;;;;;;21.70;68.80;;;;;;5073985;28;1189;-71
2021/08/01 05:38:43;;;;;;;;;;;21.70;67.10;;;;;;5074308;28;1285;-71
2021/08/01 05:41:08;;;;;;;;;;;21.60;66.30;;;;;;5074078;28;1051;-72
2021/08/01 05:43:34;;;;;;;;;;;21.60;69.70;;;;;;5072761;28;1232;-72
2021/08/01 05:45:59;;;;;;;;;;;21.70;69.90;;;;;;5058981;28;1216;-71
2021/08/01 05:48:25;;;;;;;;;;;21.70;69.40;;;;;;5073701;28;1279;-70
2021/08/01 05:50:50;;;;;;;;;;;21.70;69.60;;;;;;5073985;28;1110;-71
2021/08/01 05:53:20;;;;;;;;;;;21.70;69.70;;;;;;5060649;28;1901;-71
2021/08/01 05:55:46;;;;;;;;;;;21.70;70.00;;;;;;5071175;28;1095;-71
2021/08/01 05:58:11;;;;;;;;;;;21.70;70.10;;;;;;5073476;28;1071;-71
2021/08/01 06:00:37;;;;;;;;;;;21.70;69.20;;;;;;5073690;28;1219;-71
2021/08/01 06:03:02;;;;;;;;;;;21.70;69.20;;;;;;5059412;28;1411;-72
2021/08/01 06:05:27;;;;;;;;;;;21.70;69.10;;;;;;5053212;28;1551;-71
2021/08/01 06:07:53;;;;;;;;;;;21.70;69.20;;;;;;5072343;28;1086;-71
2021/08/01 06:10:18;;;;;;;;;;;21.70;70.10;;;;;;5072398;28;1490;-70
2021/08/01 06:12:44;;;;;;;;;;;21.70;70.30;;;;;;5072646;28;1875;-70
2021/08/01 06:15:09;;;;;;;;;;;21.70;70.50;;;;;;5071576;28;1039;-70
2021/08/01 06:17:34;;;;;;;;;;;21.70;69.30;;;;;;5072421;28;1063;-69
2021/08/01 06:20:00;;;;;;;;;;;21.70;70.50;;;;;;5071931;28;1300;-71
2021/08/01 06:22:25;;;;;;;;;;;21.70;70.50;;;;;;5072234;28;1039;-71
2021/08/01 06:24:51;;;;;;;;;;;21.70;70.00;;;;;;5070219;28;1106;-72
2021/08/01 06:27:16;;;;;;;;;;;21.70;69.50;;;;;;5071097;28;1122;-72
2021/08/01 06:29:42;;;;;;;;;;;21.70;69.50;;;;;;5072336;28;1275;-73
2021/08/01 06:32:07;;;;;;;;;;;21.70;69.60;;;;;;5071873;28;1952;-71
2021/08/01 06:34:33;;;;;;;;;;;21.70;71.00;;;;;;5072053;28;1281;-73
2021/08/01 06:36:58;;;;;;;;;;;21.70;71.00;;;;;;5041597;28;1633;-73
2021/08/01 06:39:23;;;;;;;;;;;21.70;70.70;;;;;;5058372;28;1201;-72
2021/08/01 06:41:49;;;;;;;;;;;21.70;70.50;;;;;;5071172;28;1050;-72
2021/08/01 06:44:14;;;;;;;;;;;21.70;69.80;;;;;;5059203;28;1196;-72
2021/08/01 06:46:40;;;;;;;;;;;21.70;70.50;;;;;;5062612;28;1075;-70
2021/08/01 06:49:05;;;;;;;;;;;21.70;70.20;;;;;;5071689;28;1274;-70
2021/08/01 06:51:31;;;;;;;;;;;21.70;70.50;;;;;;5050623;28;1312;-71
2021/08/01 06:53:56;;;;;;;;;;;21.70;70.80;;;;;;5055896;28;2026;-71
2021/08/01 06:56:21;;;;;;;;;;;21.70;71.10;;;;;;5067156;28;1325;-71
2021/08/01 06:58:47;;;;;;;;;;;21.70;71.00;;;;;;5061464;28;1260;-71
2021/08/01 07:01:12;;;;;;;;;;;21.70;71.00;;;;;;5047512;28;1927;-71
2021/08/01 07:03:38;;;;;;;;;;;21.70;71.20;;;;;;5050170;28;1297;-70
2021/08/01 07:06:04;;;;;;;;;;;21.70;71.40;;;;;;5049453;28;1605;-71
2021/08/01 07:08:29;;;;;;;;;;;21.80;71.50;;;;;;5050845;28;1514;-71
2021/08/01 07:10:54;;;;;;;;;;;21.80;71.80;;;;;;5051012;28;1344;-70
2021/08/01 07:13:20;;;;;;;;;;;21.80;71.90;;;;;;5054138;28;1918;-70
2021/08/01 07:15:48;;;;;;;;;;;21.80;72.00;;;;;;5048645;28;1360;-70
2021/08/01 07:18:13;;;;;;;;;;;21.80;72.10;;;;;;5049599;28;1355;-71
2021/08/01 07:20:39;;;;;;;;;;;21.80;72.30;;;;;;5056986;28;1301;-70
2021/08/01 07:23:06;;;;;;;;;;;21.90;72.30;;;;;;5071968;28;1119;-71
2021/08/01 07:25:31;;;;;;;;;;;21.90;72.50;;;;;;5071891;28;1157;-71
2021/08/01 07:27:57;;;;;;;;;;;21.90;72.50;;;;;;5072883;28;1066;-70
2021/08/01 07:30:22;;;;;;;;;;;21.90;72.70;;;;;;5072008;28;1193;-70
2021/08/01 07:32:48;;;;;;;;;;;21.90;72.80;;;;;;5071664;28;1894;-71
2021/08/01 07:35:13;;;;;;;;;;;21.90;72.90;;;;;;5069617;28;1130;-70
2021/08/01 07:37:39;;;;;;;;;;;21.90;73.00;;;;;;5072385;28;1220;-70
2021/08/01 07:40:04;;;;;;;;;;;21.90;73.10;;;;;;5072018;28;1341;-71
2021/08/01 07:42:30;;;;;;;;;;;21.90;73.20;;;;;;5070732;28;1126;-70
2021/08/01 07:44:56;;;;;;;;;;;21.90;73.30;;;;;;5060781;28;1176;-70
2021/08/01 07:47:22;;;;;;;;;;;21.90;73.40;;;;;;5068728;28;1039;-70
2021/08/01 07:49:49;;;;;;;;;;;21.90;73.50;;;;;;5072628;28;1328;-71
2021/08/01 07:52:14;;;;;;;;;;;21.90;73.60;;;;;;5072419;28;1965;-70
2021/08/01 07:54:39;;;;;;;;;;;21.90;73.70;;;;;;5065457;28;1252;-71
2021/08/01 07:57:05;;;;;;;;;;;21.90;73.80;;;;;;5075848;28;1142;-71
2021/08/01 07:59:31;;;;;;;;;;;21.90;73.90;;;;;;5075762;28;1241;-71
2021/08/01 08:01:56;;;;;;;;;;;21.90;74.10;;;;;;5076180;28;1201;-71
2021/08/01 08:04:22;;;;;;;;;;;21.90;74.30;;;;;;5073701;28;1087;-71
2021/08/01 08:06:48;;;;;;;;;;;21.90;74.30;;;;;;5075961;28;1099;-71
2021/08/01 08:09:13;;;;;;;;;;;21.90;74.60;;;;;;5074576;28;1274;-71
2021/08/01 08:11:39;;;;;;;;;;;21.90;75.40;;;;;;5074858;28;1055;-71
2021/08/01 08:14:04;;;;;;;;;;;21.90;74.50;;;;;;5074937;28;1910;-71
2021/08/01 08:16:30;;;;;;;;;;;21.90;74.50;;;;;;5075388;28;1059;-70
2021/08/01 08:18:55;;;;;;;;;;;21.90;74.50;;;;;;5075809;28;1340;-70
2021/08/01 08:21:22;;;;;;;;;;;21.90;74.50;;;;;;5075625;28;1074;-71
2021/08/01 08:23:47;;;;;;;;;;;21.90;74.50;;;;;;5075296;28;1055;-70
2021/08/01 08:26:13;;;;;;;;;;;21.90;74.70;;;;;;5073566;28;1118;-70
2021/08/01 08:28:38;;;;;;;;;;;21.90;74.60;;;;;;5075589;28;1266;-71
2021/08/01 08:31:04;;;;;;;;;;;21.90;74.70;;;;;;5075355;28;1082;-71
2021/08/01 08:33:29;;;;;;;;;;;21.90;74.80;;;;;;5074982;28;1898;-71
2021/08/01 08:35:55;;;;;;;;;;;21.90;74.80;;;;;;5073442;28;1095;-71
2021/08/01 08:38:20;;;;;;;;;;;21.90;74.90;;;;;;5075024;28;1373;-71
2021/08/01 08:40:45;;;;;;;;;;;21.90;75.00;;;;;;5075312;28;1110;-71
2021/08/01 08:43:12;;;;;;;;;;;22.00;75.20;;;;;;5073430;28;1146;-70
2021/08/01 08:45:37;;;;;;;;;;;22.00;75.00;;;;;;5059785;28;1244;-70
2021/08/01 08:48:04;;;;;;;;;;;22.00;74.90;;;;;;5064810;28;1094;-70
2021/08/01 08:50:29;;;;;;;;;;;22.00;75.10;;;;;;5070654;28;1225;-70
2021/08/01 08:53:01;;;;;;;;;;;22.00;75.30;;;;;;5065615;28;2009;-71
2021/08/01 08:55:26;;;;;;;;;;;22.00;75.40;;;;;;5069896;28;1027;-71
2021/08/01 08:57:56;;;;;;;;;;;22.00;75.40;;;;;;5074225;28;1043;-71
2021/08/01 09:00:22;;;;;;;;;;;22.00;75.50;;;;;;5073750;28;1397;-70
2021/08/01 09:02:47;;;;;;;;;;;22.00;75.70;;;;;;5073539;28;1039;-71
2021/08/01 09:05:13;;;;;;;;;;;22.00;76.00;;;;;;5073707;28;1106;-70
2021/08/01 09:07:38;;;;;;;;;;;22.00;76.20;;;;;;5074768;28;1071;-70
2021/08/01 09:10:04;;;;;;;;;;;22.10;76.80;;;;;;5074530;28;1265;-71
2021/08/01 09:12:30;;;;;;;;;;;22.10;76.90;;;;;;5074641;28;1894;-71
2021/08/01 09:15:10;;;;;;;;;;;22.10;77.00;;;;;;5074130;28;1121;-71
2021/08/01 09:17:36;;;;;;;;;;;22.10;77.10;;;;;;5074685;28;1243;-70
2021/08/01 09:20:15;;;;;;;;;;;22.10;77.40;;;;;;5072789;28;1204;-71
2021/08/01 09:22:41;;;;;;;;;;;22.10;77.50;;;;;;5074345;28;1059;-71
2021/08/01 09:25:20;;;;;;;;;;;22.10;77.60;;;;;;5073826;28;1134;-71
2021/08/01 09:27:45;;;;;;;;;;;22.10;77.50;;;;;;5059438;28;1091;-69
2021/08/01 09:30:11;;;;;;;;;;;22.10;77.70;;;;;;5074426;28;1209;-71
2021/08/01 09:32:47;;;;;;;;;;;22.10;77.80;;;;;;5072859;28;1913;-71
2021/08/01 09:35:16;;;;;;;;;;;22.10;77.80;;;;;;5072448;28;1083;-72
2021/08/01 09:37:41;;;;;;;;;;;22.10;78.00;;;;;;5073066;28;1090;-71
2021/08/01 09:40:10;;;;;;;;;;;22.10;78.00;;;;;;5074106;28;1208;-70
2021/08/01 09:42:54;;;;;;;;;;;22.10;78.80;;;;;;5072770;28;1177;-71
2021/08/01 09:45:20;;;;;;;;;;;22.10;77.90;;;;;;5058944;28;1130;-71
2021/08/01 09:47:46;;;;;;;;;;;22.10;77.80;;;;;;5072329;28;1059;-71
2021/08/01 09:50:11;;;;;;;;;;;22.10;77.80;;;;;;5072442;28;1274;-71
2021/08/01 09:52:37;;;;;;;;;;;22.10;77.90;;;;;;5065985;28;1902;-71
2021/08/01 09:55:03;;;;;;;;;;;22.10;78.60;;;;;;5065933;28;1084;-71
2021/08/01 09:57:28;;;;;;;;;;;22.10;77.70;;;;;;5073068;28;1214;-71
2021/08/01 10:00:04;;;;;;;;;;;22.10;77.60;;;;;;5073898;28;1191;-71
2021/08/01 10:02:36;;;;;;;;;;;22.10;77.70;;;;;;5072294;28;1141;-71
2021/08/01 10:05:13;;;;;;;;;;;22.10;77.70;;;;;;5073736;28;1146;-71
2021/08/01 10:07:41;;;;;;;;;;;22.10;77.80;;;;;;5073366;28;1027;-71
2021/08/01 10:10:14;;;;;;;;;;;22.10;77.80;;;;;;5073569;28;1357;-71
2021/08/01 10:12:43;;;;;;;;;;;22.10;77.80;;;;;;5072263;28;1969;-71
2021/08/01 10:15:08;;;;;;;;;;;22.10;77.90;;;;;;5073493;28;1161;-71
2021/08/01 10:17:34;;;;;;;;;;;22.10;77.90;;;;;;5072862;28;1110;-71
2021/08/01 10:19:59;;;;;;;;;;;22.10;78.10;;;;;;5073557;28;1356;-71
2021/08/01 10:22:25;;;;;;;;;;;22.10;78.20;;;;;;5073202;28;1121;-70
2021/08/01 10:24:54;;;;;;;;;;;22.10;78.40;;;;;;5071361;28;1125;-71
2021/08/01 10:27:19;;;;;;;;;;;22.10;78.50;;;;;;5071566;28;1182;-71
2021/08/01 10:29:45;;;;;;;;;;;22.10;78.70;;;;;;5073039;28;1197;-71
2021/08/01 10:32:11;;;;;;;;;;;22.10;78.90;;;;;;5071722;28;1906;-71
2021/08/01 10:34:37;;;;;;;;;;;22.20;79.90;;;;;;5071370;28;1198;-71
2021/08/01 10:37:07;;;;;;;;;;;22.10;79.40;;;;;;5071881;28;1169;-71
2021/08/01 10:39:34;;;;;;;;;;;22.10;79.60;;;;;;5071581;28;1381;-71
2021/08/01 10:42:06;;;;;;;;;;;22.20;79.60;;;;;;5071449;28;1134;-71
2021/08/01 10:44:31;;;;;;;;;;;22.10;79.70;;;;;;5065365;28;1047;-71
2021/08/01 10:46:57;;;;;;;;;;;22.20;79.90;;;;;;5066108;28;1072;-71
2021/08/01 10:49:22;;;;;;;;;;;22.20;79.90;;;;;;5072535;28;1283;-71
2021/08/01 10:51:48;;;;;;;;;;;22.10;79.90;;;;;;5072772;28;1113;-71
2021/08/01 10:54:19;;;;;;;;;;;22.20;79.90;;;;;;5070891;28;1899;-71
2021/08/01 10:56:45;;;;;;;;;;;22.20;80.10;;;;;;5072842;28;1157;-71
2021/08/01 10:59:29;;;;;;;;;;;22.10;80.00;;;;;;5054608;28;1241;-71
2021/08/01 11:02:11;;;;;;;;;;;22.20;80.00;;;;;;5072119;28;1066;-71
2021/08/01 11:04:38;;;;;;;;;;;22.20;80.80;;;;;;5070785;28;1138;-71
2021/08/01 11:07:03;;;;;;;;;;;22.20;79.80;;;;;;5072502;28;1042;-71
2021/08/01 11:09:29;;;;;;;;;;;22.20;79.90;;;;;;5086171;22;2444;-67
2021/08/01 11:12:13;;;;;;;;;;;22.20;79.90;;;;;;5070762;28;1431;-66
2021/08/01 11:14:47;;;;;;;;;;;22.20;79.80;;;;;;5070467;28;1390;-67
2021/08/01 11:17:13;;;;;;;;;;;22.20;79.50;;;;;;5060737;28;941;-67
2021/08/01 11:19:38;;;;;;;;;;;22.20;79.50;;;;;;5071242;28;1383;-67
2021/08/01 11:22:04;;;;;;;;;;;22.20;79.30;;;;;;5071309;28;1360;-68
2021/08/01 11:24:29;;;;;;;;;;;22.20;79.40;;;;;;5071301;28;1440;-67
2021/08/01 11:27:04;;;;;;;;;;;22.20;79.20;;;;;;5072970;28;1376;-67
2021/08/01 11:29:29;;;;;;;;;;;22.20;79.20;;;;;;5059069;28;1509;-67
2021/08/01 11:32:05;;;;;;;;;;;22.20;80.00;;;;;;5070966;28;1276;-69
2021/08/01 11:34:30;;;;;;;;;;;22.20;79.10;;;;;;5067179;28;1282;-67
2021/08/01 11:37:14;;;;;;;;;;;22.20;79.10;;;;;;5061035;28;1414;-67
2021/08/01 11:39:50;;;;;;;;;;;22.20;79.20;;;;;;5071256;28;1439;-67
2021/08/01 11:42:25;;;;;;;;;;;22.20;79.10;;;;;;5070958;28;1401;-68
2021/08/01 11:45:03;;;;;;;;;;;22.20;79.10;;;;;;5060941;28;1283;-67
2021/08/01 11:47:28;;;;;;;;;;;22.20;79.10;;;;;;5068710;28;1871;-66
2021/08/01 11:49:54;;;;;;;;;;;22.20;79.00;;;;;;5072616;28;1370;-66
2021/08/01 11:52:20;;;;;;;;;;;22.20;79.10;;;;;;5066553;28;1902;-66
2021/08/01 11:54:46;;;;;;;;;;;22.20;79.00;;;;;;5061101;28;1702;-66
2021/08/01 11:57:12;;;;;;;;;;;22.20;79.10;;;;;;5071014;28;1713;-66
2021/08/01 11:59:38;;;;;;;;;;;22.20;79.10;;;;;;5071736;28;1382;-66
2021/08/01 12:02:10;;;;;;;;;;;22.20;79.20;;;;;;5070524;28;1655;-67
2021/08/01 12:04:35;;;;;;;;;;;22.20;79.10;;;;;;5071260;28;1656;-68
2021/08/01 12:07:01;;;;;;;;;;;22.20;78.60;;;;;;5072053;28;1623;-67
2021/08/01 12:09:27;;;;;;;;;;;22.20;77.60;;;;;;5070439;28;1640;-67
2021/08/01 12:11:53;;;;;;;;;;;22.20;76.20;;;;;;5070869;28;1450;-66
2021/08/01 12:14:42;;;;;;;;;;;22.10;75.70;;;;;;5068924;28;1975;-67
2021/08/01 12:17:08;;;;;;;;;;;22.10;75.60;;;;;;5050200;28;1176;-66
2021/08/01 12:19:34;;;;;;;;;;;22.10;73.70;;;;;;5049761;28;1286;-67
2021/08/01 12:22:00;;;;;;;;;;;22.10;73.40;;;;;;5059544;28;1172;-66
2021/08/01 12:24:32;;;;;;;;;;;22.00;73.80;;;;;;5052786;28;1051;-68
2021/08/01 12:27:02;;;;;;;;;;;22.00;73.70;;;;;;5071872;28;1042;-66
2021/08/01 12:29:31;;;;;;;;;;;22.00;74.10;;;;;;5071473;28;1341;-68
2021/08/01 12:31:57;;;;;;;;;;;22.00;74.30;;;;;;5060155;28;1367;-67
2021/08/01 12:34:22;;;;;;;;;;;22.00;74.20;;;;;;5065535;28;1894;-68
2021/08/01 12:36:48;;;;;;;;;;;22.00;73.90;;;;;;5073672;28;1133;-67
2021/08/01 12:39:17;;;;;;;;;;;22.00;73.80;;;;;;5074616;28;1345;-68
2021/08/01 12:41:43;;;;;;;;;;;22.00;71.60;;;;;;5073824;28;1094;-67
2021/08/01 12:44:15;;;;;;;;;;;22.00;69.90;;;;;;5067060;28;1856;-67
2021/08/01 12:46:41;;;;;;;;;;;22.00;70.60;;;;;;5054435;28;1127;-66
2021/08/01 12:49:06;;;;;;;;;;;22.00;70.80;;;;;;5077597;28;1075;-67
2021/08/01 12:51:32;;;;;;;;;;;22.00;71.00;;;;;;5073584;28;1316;-67
2021/08/01 12:53:59;;;;;;;;;;;22.00;68.90;;;;;;5057833;28;1961;-67
2021/08/01 12:56:24;;;;;;;;;;;22.00;67.60;;;;;;5074259;28;1122;-66
2021/08/01 12:58:50;;;;;;;;;;;22.00;66.50;;;;;;5073091;28;1162;-66
2021/08/01 13:01:15;;;;;;;;;;;22.00;66.20;;;;;;5072160;28;1244;-66
2021/08/01 13:03:41;;;;;;;;;;;22.00;68.30;;;;;;5074328;28;1071;-66
2021/08/01 13:06:06;;;;;;;;;;;22.10;68.00;;;;;;5050349;28;1907;-66
2021/08/01 13:08:39;;;;;;;;;;;22.00;65.60;;;;;;5063543;28;1863;-68
2021/08/01 13:11:04;;;;;;;;;;;22.00;65.40;;;;;;5057364;28;1243;-67
2021/08/01 13:13:30;;;;;;;;;;;22.00;66.30;;;;;;5071942;28;1922;-68
2021/08/01 13:15:57;;;;;;;;;;;22.00;66.60;;;;;;5065227;28;1087;-67
2021/08/01 13:18:28;;;;;;;;;;;22.00;67.10;;;;;;5055412;28;1721;-67
2021/08/01 13:20:53;;;;;;;;;;;22.00;67.10;;;;;;5054106;28;1197;-67
2021/08/01 13:23:26;;;;;;;;;;;22.00;68.80;;;;;;5072112;28;1083;-66
2021/08/01 13:25:52;;;;;;;;;;;21.90;69.00;;;;;;5072797;28;1054;-66
2021/08/01 13:28:17;;;;;;;;;;;21.90;69.10;;;;;;5073150;28;1135;-66
2021/08/01 13:31:01;;;;;;;;;;;21.90;70.00;;;;;;5072973;28;1334;-67
2021/08/01 13:33:26;;;;;;;;;;;21.90;69.70;;;;;;5071811;28;1957;-66
2021/08/01 13:35:52;;;;;;;;;;;21.90;70.80;;;;;;5067640;28;1416;-67
2021/08/01 13:38:17;;;;;;;;;;;21.90;69.40;;;;;;5053964;28;1215;-67
2021/08/01 13:40:42;;;;;;;;;;;21.90;70.00;;;;;;5051859;28;1303;-67
2021/08/01 13:43:17;;;;;;;;;;;21.90;69.00;;;;;;5061745;28;1360;-68
2021/08/01 13:45:43;;;;;;;;;;;21.90;68.50;;;;;;5057628;28;1255;-67
2021/08/01 13:48:09;;;;;;;;;;;21.90;69.00;;;;;;5072178;28;1110;-68
2021/08/01 13:50:34;;;;;;;;;;;21.90;68.90;;;;;;5074114;28;1337;-68
2021/08/01 13:52:59;;;;;;;;;;;21.90;68.80;;;;;;5063339;28;1897;-68
2021/08/01 13:55:27;;;;;;;;;;;21.90;69.00;;;;;;5061817;28;1053;-65
2021/08/01 13:58:05;;;;;;;;;;;21.80;69.70;;;;;;5054881;28;1208;-67
2021/08/01 14:00:31;;;;;;;;;;;21.80;69.50;;;;;;5055282;28;1261;-66
2021/08/01 14:02:59;;;;;;;;;;;21.80;68.40;;;;;;5050255;28;1539;-67
2021/08/01 14:05:24;;;;;;;;;;;21.80;68.50;;;;;;5051936;28;1893;-68
2021/08/01 14:07:50;;;;;;;;;;;21.80;69.30;;;;;;5052793;28;1131;-68
2021/08/01 14:10:15;;;;;;;;;;;21.80;70.10;;;;;;5060363;28;1717;-67
2021/08/01 14:12:41;;;;;;;;;;;21.80;70.50;;;;;;5052643;28;1953;-66
2021/08/01 14:15:08;;;;;;;;;;;21.80;70.70;;;;;;5054023;28;1801;-68
2021/08/01 14:17:36;;;;;;;;;;;21.80;71.00;;;;;;5053181;28;1514;-66
2021/08/01 14:20:02;;;;;;;;;;;21.80;71.10;;;;;;5088815;28;1738;-66
2021/08/01 14:22:28;;;;;;;;;;;21.80;71.30;;;;;;5073812;28;1082;-66
2021/08/01 14:24:53;;;;;;;;;;;21.80;71.50;;;;;;5072684;28;1066;-66
2021/08/01 14:27:21;;;;;;;;;;;21.80;71.60;;;;;;5072833;28;1047;-67
2021/08/01 14:29:47;;;;;;;;;;;21.80;71.80;;;;;;5073018;28;1346;-67